Hoskings Ranch (222) Station Data

Red Flag Warning: No
Fire Weather Zone: 258
SDGE Region: Ramona
Lat/Lon: 33.083/-116.657

Observations

Time Wind Speed/Gust Temp(F) RH Fuel Moist Fuel Temp(F) Dewpt(F) Tmax(F) Tmin(F) Accum Precip 10-min Precip SL Press(mb)
3/29 8:00am 54 8 G 12 60° 20% - - 19° 60.3° 51.2° - - -
3/29 7:50am 65 8 G 14 59° 20% - - 19° 60° 51.2° - - -
3/29 7:40am 65 9 G 15 58° 21% - - 19° 58.8° 51.2° - - -
3/29 7:30am 64 10 G 15 58° 21% - - 18° 58.1° 51.2° - - -
3/29 7:20am 66 10 G 15 57° 22% - - 18° 57.9° 51.2° - - -
3/29 7:10am 59 10 G 14 55° 22% - - 17° 57.9° 51.2° - - -
3/29 7:00am 61 8 G 12 55° 22% - - 17° 57.9° 51.2° - - -
3/29 6:50am 60 8 G 12 55° 21% - - 16° 57.9° 51.2° - - -
3/29 6:40am 63 7 G 10 56° 21% - - 16° 57.9° 51.2° - - -
3/29 6:30am 69 8 G 11 56° 21% - - 16° 57.9° 51.2° - - -
3/29 6:20am 63 9 G 11 56° 20% - - 16° 57.9° 51.2° - - -
3/29 6:10am 67 10 G 14 58° 19% - - 16° 57.9° 51.2° - - -
3/29 6:00am 65 9 G 17 57° 19% - - 16° 57.9° 51.2° - - -
3/29 5:50am 60 8 G 13 57° 20% - - 16° 57.4° 51.2° - - -
3/29 5:40am 58 7 G 10 56° 20% - - 16° 56.9° 51.2° - - -
3/29 5:30am 56 8 G 11 56° 20% - - 16° 56.9° 51.2° - - -
3/29 5:20am 65 6 G 12 56° 21% - - 16° 56.9° 51.2° - - -
3/29 5:10am 63 8 G 12 55° 21% - - 16° 56.9° 51.2° - - -
3/29 5:00am 64 10 G 13 55° 22% - - 16° 56.9° 51.2° - - -
3/29 4:50am 68 10 G 14 53° 23% - - 17° 56.9° 51.2° - - -
3/29 4:40am 59 12 G 16 52° 24% - - 17° 56.9° 51.2° - - -
3/29 4:30am 51 11 G 13 53° 23% - - 17° 56.9° 51.2° - - -
3/29 4:20am 55 13 G 17 55° 21% - - 16° 56.9° 51.2° - - -
3/29 4:10am 55 14 G 18 55° 20% - - 15° 56.9° 51.2° - - -
3/29 4:00am 52 13 G 17 56° 20% - - 15° 56.9° 51.2° - - -
3/29 3:50am 59 9 G 16 56° 20% - - 15° 56.4° 51.2° - - -
3/29 3:40am 53 8 G 11 56° 20% - - 16° 56.4° 51.2° - - -
3/29 3:30am 58 8 G 14 56° 21% - - 16° 56.2° 51.2° - - -
3/29 3:20am 50 7 G 13 55° 22% - - 17° 55.8° 51.2° - - -
3/29 3:10am 60 8 G 13 55° 22% - - 17° 55.8° 51.2° - - -
3/29 3:00am 61 10 G 14 55° 22% - - 17° 55.8° 51.2° - - -
3/29 2:50am 55 8 G 15 55° 24% - - 19° 55.1° 51.2° - - -
3/29 2:40am 55 7 G 12 54° 27% - - 21° 55.1° 51.2° - - -
3/29 2:30am 53 8 G 12 53° 30% - - 23° 55.1° 51.2° - - -
3/29 2:20am 61 8 G 11 53° 31% - - 23° 55.1° 51.2° - - -
3/29 2:10am 64 8 G 12 54° 30% - - 23° 55.1° 51.2° - - -
3/29 2:00am 71 7 G 10 54° 29% - - 23° 55.1° 51.2° - - -
3/29 1:50am 69 8 G 11 53° 31% - - 24° 55.1° 51.2° - - -
3/29 1:40am 69 9 G 14 53° 32% - - 24° 55.1° 51.2° - - -
3/29 1:30am 63 8 G 11 53° 29% - - 22° 55.1° 51.2° - - -
3/29 1:20am 67 7 G 9 54° 27% - - 21° 55.1° 51.2° - - -
3/29 1:10am 73 7 G 9 54° 30% - - 23° 55.1° 51.2° - - -
3/29 1:00am 70 6 G 9 53° 35% - - 26° 55.1° 51.2° - - -
3/29 12:50am 73 7 G 9 53° 35% - - 27° 55.1° 51.2° - - -
3/29 12:40am 75 6 G 8 54° 35% - - 27° 55.1° 51.2° - - -
3/29 12:30am 75 6 G 9 54° 36% - - 28° 55.1° 51.2° - - -
3/29 12:20am 69 6 G 8 52° 39% - - 28° 54.1° 51.2° - - -
3/29 12:10am 72 7 G 9 53° 37% - - 27° 53.5° 51.7° - - -
3/29 12:00am 85 7 G 9 53° 36% - - 27° 62.7° 42° - - -
3/28 11:50pm 85 7 G 9 54° 34% - - 26° 62.7° 42° - - -
3/28 11:40pm 85 7 G 8 54° 34% - - 26° 62.7° 42° - - -
3/28 11:30pm 83 5 G 8 54° 33% - - 25° 62.7° 42° - - -
3/28 11:20pm 77 5 G 6 53° 33% - - 25° 62.7° 42° - - -
3/28 11:10pm 72 5 G 7 54° 32% - - 25° 62.7° 42° - - -
3/28 11:00pm 76 5 G 7 54° 33% - - 25° 62.7° 42° - - -
3/28 10:50pm 75 5 G 6 53° 36% - - 27° 62.7° 42° - - -
3/28 10:40pm 60 4 G 6 54° 36% - - 28° 62.7° 42° - - -
3/28 10:30pm 72 4 G 6 54° 37% - - 29° 62.7° 42° - - -
3/28 10:20pm 68 2 G 4 53° 43% - - 31° 62.7° 42° - - -
3/28 10:10pm 62 2 G 4 52° 54% - - 35° 62.7° 42° - - -
3/28 10:00pm 73 2 G 4 53° 58% - - 38° 62.7° 42° - - -
3/28 9:50pm 87 1 G 3 54° 57% - - 39° 62.7° 42° - - -
3/28 9:40pm 88 1 G 4 53° 60% - - 39° 62.7° 42° - - -
3/28 9:30pm 89 2 G 3 53° 59% - - 39° 62.7° 42° - - -
3/28 9:20pm 78 2 G 4 52° 62% - - 40° 62.7° 42° - - -
3/28 9:10pm 86 2 G 3 53° 59% - - 40° 62.7° 42° - - -
3/28 9:00pm 79 2 G 3 53° 62% - - 40° 62.7° 42° - - -
3/28 8:50pm 82 2 G 3 54° 60% - - 40° 62.7° 42° - - -
3/28 8:40pm 70 2 G 3 52° 64% - - 40° 62.7° 42° - - -
3/28 8:30pm 92 1 G 2 53° 62% - - 40° 62.7° 42° - - -
3/28 8:20pm 75 2 G 3 53° 63% - - 41° 62.7° 42° - - -
3/28 8:10pm 106 1 G 2 54° 61% - - 40° 62.7° 42° - - -
3/28 8:00pm 76 1 G 2 54° 62% - - 41° 62.7° 42° - - -
3/28 7:50pm 135 1 G 3 54° 60% - - 41° 62.7° 42° - - -
3/28 7:40pm 151 1 G 2 54° 60% - - 41° 62.7° 42° - - -
3/28 7:30pm 197 2 G 4 55° 59% - - 41° 62.7° 42° - - -
3/28 7:20pm 189 1 G 2 55° 59% - - 41° 62.7° 42° - - -
3/28 7:10pm 206 3 G 5 55° 59% - - 41° 62.7° 42° - - -
3/28 7:00pm 221 3 G 5 56° 57% - - 41° 62.7° 42° - - -
3/28 6:50pm 226 5 G 7 57° 55% - - 41° 62.7° 42° - - -
3/28 6:40pm 274 3 G 7 57° 54% - - 41° 62.7° 42° - - -
3/28 6:30pm 260 5 G 9 58° 52% - - 41° 62.7° 42° - - -
3/28 6:20pm 270 4 G 8 59° 50% - - 40° 62.7° 42° - - -
3/28 6:10pm 252 7 G 10 59° 50% - - 40° 62.7° 42° - - -
3/28 6:00pm 264 6 G 10 59° 49% - - 40° 62.7° 42° - - -
3/28 5:50pm 261 7 G 10 60° 49% - - 40° 62.7° 42° - - -
3/28 5:40pm 260 8 G 11 60° 48% - - 40° 62.7° 42° - - -
3/28 5:30pm 261 7 G 12 61° 46% - - 40° 62.7° 42° - - -
3/28 5:20pm 241 7 G 11 61° 44% - - 39° 62.7° 42° - - -
3/28 5:10pm 233 8 G 11 61° 44% - - 39° 62.7° 42° - - -
3/28 5:00pm 235 8 G 12 61° 44% - - 39° 62.7° 42° - - -
3/28 4:50pm 250 8 G 14 61° 43% - - 38° 62.7° 42° - - -
3/28 4:40pm 260 7 G 11 62° 42% - - 38° 62.7° 42° - - -
3/28 4:30pm 253 7 G 13 62° 42% - - 38° 62.7° 42° - - -
3/28 4:20pm 264 7 G 12 62° 41% - - 38° 62.7° 42° - - -
3/28 4:10pm 233 7 G 12 61° 39% - - 36° 62.4° 42° - - -
3/28 4:00pm 242 7 G 13 62° 39% - - 36° 62.4° 42° - - -
3/28 3:50pm 237 9 G 13 61° 40% - - 37° 62.4° 42° - - -
3/28 3:40pm 253 7 G 13 61° 39% - - 36° 62.4° 42° - - -
3/28 3:30pm 254 7 G 12 61° 38% - - 36° 61.9° 42° - - -
3/28 3:20pm 252 7 G 13 61° 39% - - 36° 61.9° 42° - - -
3/28 3:10pm 240 10 G 16 61° 38% - - 35° 61.9° 42° - - -
3/28 3:00pm 247 9 G 14 61° 39% - - 36° 61.9° 42° - - -
3/28 2:50pm 238 9 G 14 60° 40% - - 36° 61.9° 42° - - -
3/28 2:40pm 232 9 G 16 61° 40% - - 37° 61.9° 42° - - -
3/28 2:30pm 234 9 G 14 60° 41% - - 37° 61.5° 42° - - -
3/28 2:20pm 237 7 G 13 61° 41% - - 37° 61.5° 42° - - -
3/28 2:10pm 240 8 G 15 60° 42% - - 37° 61.2° 42° - - -
3/28 2:00pm 239 9 G 15 60° 42% - - 36° 61.2° 42° - - -
3/28 1:50pm 240 9 G 14 60° 41% - - 37° 61.2° 42° - - -
3/28 1:40pm 243 8 G 12 60° 41% - - 36° 61.2° 42° - - -
3/28 1:30pm 220 10 G 15 59° 40% - - 35° 61.2° 42° - - -
3/28 1:20pm 239 10 G 15 60° 40% - - 36° 61.2° 42° - - -
3/28 1:10pm 242 8 G 13 59° 41% - - 36° 61.2° 42° - - -
3/28 1:00pm 247 9 G 14 59° 41% - - 36° 61.2° 42° - - -
3/28 12:50pm 238 10 G 14 59° 42% - - 36° 61.2° 42° - - -
3/28 12:40pm 239 11 G 17 58° 42% - - 35° 61.2° 42° - - -
3/28 12:30pm 232 10 G 15 58° 41% - - 35° 61.2° 42° - - -
3/28 12:20pm 242 10 G 14 59° 38% - - 33° 61.2° 42° - - -
3/28 12:10pm 249 9 G 13 59° 35% - - 31° 61.2° 42° - - -
3/28 12:00pm 249 8 G 11 59° 33% - - 30° 61.2° 42° - - -
3/28 11:50am 248 5 G 8 59° 28% - - 26° 61.2° 42° - - -
3/28 11:40am 225 4 G 7 59° 29% - - 26° 61.2° 42° - - -
3/28 11:30am 75 3 G 5 60° 22% - - 21° 61.2° 42° - - -
3/28 11:20am 60 2 G 6 60° 22% - - 21° 61.2° 42° - - -
3/28 11:10am 90 4 G 11 59° 22% - - 20° 59.8° 42° - - -
3/28 11:00am 101 4 G 8 59° 23% - - 21° 59.5° 42° - - -
3/28 10:50am 77 3 G 9 59° 23% - - 21° 59.5° 42° - - -
3/28 10:40am 75 4 G 9 58° 23% - - 21° 59° 42° - - -
3/28 10:30am 78 5 G 12 57° 23% - - 20° 58.2° 42° - - -
3/28 10:20am 73 8 G 14 57° 23% - - 20° 57.5° 42° - - -
3/28 10:10am 75 8 G 14 57° 23% - - 19° 57.4° 42° - - -
3/28 10:00am 73 8 G 13 56° 23% - - 19° 57° 42° - - -
3/28 9:50am 67 8 G 13 56° 24% - - 20° 56.6° 42° - - -
3/28 9:40am 66 8 G 14 55° 25% - - 20° 56.3° 42° - - -
3/28 9:30am 58 10 G 15 55° 24% - - 19° 55.7° 42° - - -
3/28 9:20am 61 9 G 15 55° 25% - - 20° 55.5° 42° - - -
3/28 9:10am 58 10 G 17 54° 26% - - 21° 55.2° 42° - - -
3/28 9:00am 63 10 G 15 54° 26% - - 20° 54.7° 42° - - -
3/28 8:50am 58 9 G 14 54° 26% - - 20° 54.2° 42° - - -
3/28 8:40am 61 8 G 13 53° 27% - - 20° 53.8° 42° - - -
3/28 8:30am 59 7 G 12 53° 28% - - 20° 53.4° 42° - - -
3/28 8:20am 55 11 G 16 52° 28% - - 20° 52.9° 42° - - -
3/28 8:10am 58 9 G 13 52° 28% - - 20° 52.5° 42° - - -
3/28 8:00am 57 5 G 9 52° 29% - - 21° 52.2° 42° - - -
3/28 7:50am 63 5 G 8 51° 29% - - 20° 51.7° 42° - - -
3/28 7:40am 55 6 G 11 50° 30% - - 20° 50.8° 42° - - -
3/28 7:30am 59 5 G 10 49° 32% - - 21° 50.3° 42° - - -
3/28 7:20am 57 3 G 5 49° 33% - - 21° 49.5° 42° - - -
3/28 7:10am 70 5 G 7 48° 33% - - 20° 49.5° 42° - - -
3/28 7:00am 68 7 G 10 48° 33% - - 20° 49.5° 42° - - -
3/28 6:50am 74 6 G 7 48° 32% - - 20° 49.5° 42° - - -
3/28 6:40am 75 6 G 8 48° 34% - - 21° 49.5° 42° - - -
3/28 6:30am 76 6 G 8 47° 36% - - 22° 49.5° 42° - - -
3/28 6:20am 76 6 G 10 47° 36% - - 21° 49.5° 42° - - -
3/28 6:10am 76 4 G 6 48° 33% - - 20° 49.5° 42° - - -
3/28 6:00am 60 5 G 9 47° 34% - - 20° 49.5° 42° - - -